createdAt,value
2023-03-20T00:00:09.052Z,9.19
2023-03-20T00:02:36.194Z,9.18
2023-03-20T00:05:02.896Z,9.13
2023-03-20T00:07:29.671Z,9.06
2023-03-20T00:09:57.930Z,8.99
2023-03-20T00:12:28.585Z,8.92
2023-03-20T00:14:55.530Z,8.89
2023-03-20T00:17:22.199Z,8.96
2023-03-20T00:19:49.167Z,8.98
2023-03-20T00:22:15.945Z,9.00
2023-03-20T00:24:42.528Z,8.95
2023-03-20T00:27:12.692Z,9.00
2023-03-20T00:29:39.354Z,8.97
2023-03-20T00:32:13.064Z,8.97
2023-03-20T00:34:39.684Z,8.97
2023-03-20T00:37:06.342Z,9.03
2023-03-20T00:39:32.960Z,9.09
2023-03-20T00:42:03.931Z,9.10
2023-03-20T00:44:45.460Z,9.11
2023-03-20T00:47:17.135Z,9.13
2023-03-20T00:49:45.818Z,9.14
2023-03-20T00:52:12.781Z,9.14
2023-03-20T00:54:39.381Z,9.13
2023-03-20T00:57:14.012Z,9.16
2023-03-20T00:59:51.826Z,9.18
2023-03-20T01:02:18.574Z,9.17
2023-03-20T01:04:45.202Z,9.20
2023-03-20T01:07:14.258Z,9.21
2023-03-20T01:09:41.817Z,9.17
2023-03-20T01:12:11.061Z,9.20
2023-03-20T01:14:37.666Z,9.20
2023-03-20T01:17:04.907Z,9.00
2023-03-20T01:19:31.565Z,9.09
2023-03-20T01:21:58.488Z,9.17
2023-03-20T01:24:25.193Z,9.17
2023-03-20T01:26:52.780Z,9.18
2023-03-20T01:29:24.867Z,9.18
2023-03-20T01:31:52.696Z,9.14
2023-03-20T01:34:21.273Z,9.11
2023-03-20T01:36:50.826Z,9.07
2023-03-20T01:39:19.215Z,9.04
2023-03-20T01:41:47.279Z,9.05
2023-03-20T01:44:29.539Z,9.05
2023-03-20T01:46:58.516Z,9.08
2023-03-20T01:49:25.464Z,9.13
2023-03-20T01:51:56.334Z,9.19
2023-03-20T01:54:26.838Z,9.27
2023-03-20T01:56:59.274Z,9.28
2023-03-20T01:59:30.051Z,9.30
2023-03-20T02:01:56.948Z,9.33
2023-03-20T02:04:28.271Z,9.31
2023-03-20T02:07:01.430Z,9.28
2023-03-20T02:09:37.825Z,9.18
2023-03-20T02:12:08.999Z,9.19
2023-03-20T02:14:36.433Z,9.15
2023-03-20T02:17:13.767Z,9.18
2023-03-20T02:19:51.310Z,9.06
2023-03-20T02:22:51.193Z,9.07
2023-03-20T02:25:42.609Z,9.13
2023-03-20T02:28:21.805Z,9.19
2023-03-20T02:31:05.450Z,9.20
2023-03-20T02:33:36.030Z,9.22
2023-03-20T02:36:26.074Z,9.21
2023-03-20T02:39:07.990Z,9.15
2023-03-20T02:41:40.104Z,9.10
2023-03-20T02:44:29.962Z,9.08
2023-03-20T02:47:09.200Z,9.08
2023-03-20T02:49:37.904Z,9.09
2023-03-20T02:52:29.579Z,9.09
2023-03-20T02:55:34.871Z,9.11
2023-03-20T02:58:13.543Z,9.09
2023-03-20T03:00:47.576Z,9.07
2023-03-20T03:03:21.174Z,9.05
2023-03-20T03:06:08.574Z,9.07
2023-03-20T03:08:39.827Z,9.11
2023-03-20T03:11:08.768Z,9.09
2023-03-20T03:13:53.530Z,8.96
2023-03-20T03:16:25.266Z,8.96
2023-03-20T03:19:08.725Z,8.90
2023-03-20T03:21:37.420Z,8.74
2023-03-20T03:24:04.496Z,8.70
2023-03-20T03:26:34.972Z,8.69
2023-03-20T03:29:07.133Z,8.68
2023-03-20T03:31:37.363Z,8.68
2023-03-20T03:34:04.365Z,8.69
2023-03-20T03:37:02.920Z,8.70
2023-03-20T03:40:06.479Z,8.64
2023-03-20T03:42:40.470Z,8.61
2023-03-20T03:45:14.674Z,8.66
2023-03-20T03:47:52.229Z,8.68
2023-03-20T03:50:27.455Z,8.67
2023-03-20T03:53:00.350Z,8.66
2023-03-20T03:55:32.678Z,8.65
2023-03-20T03:58:20.250Z,8.66
2023-03-20T04:00:50.659Z,8.61
2023-03-20T04:03:20.355Z,8.62
2023-03-20T04:05:47.397Z,8.60
2023-03-20T04:08:14.672Z,8.64
2023-03-20T04:10:41.536Z,8.63
2023-03-20T04:13:08.873Z,8.65
2023-03-20T04:15:35.979Z,8.70
2023-03-20T04:18:04.842Z,8.73
2023-03-20T04:20:31.558Z,8.70
2023-03-20T04:22:58.555Z,8.72
2023-03-20T04:25:29.025Z,8.72
2023-03-20T04:27:59.683Z,8.72
2023-03-20T04:30:38.717Z,8.72
2023-03-20T04:33:14.303Z,8.73
2023-03-20T04:36:01.387Z,8.73
2023-03-20T04:38:28.321Z,8.75
2023-03-20T04:40:55.429Z,8.76
2023-03-20T04:43:22.087Z,8.76
2023-03-20T04:45:48.852Z,8.73
2023-03-20T04:48:15.499Z,8.72
2023-03-20T04:50:42.478Z,8.69
2023-03-20T04:53:09.188Z,8.67
2023-03-20T04:55:36.091Z,8.50
2023-03-20T04:58:03.161Z,8.52
2023-03-20T05:00:30.091Z,8.53
2023-03-20T05:02:56.787Z,8.51
2023-03-20T05:05:23.835Z,8.50
2023-03-20T05:07:52.035Z,8.50
2023-03-20T05:10:31.951Z,8.55
2023-03-20T05:13:04.825Z,8.52
2023-03-20T05:15:58.007Z,8.53
2023-03-20T05:18:46.462Z,8.57
2023-03-20T05:21:27.975Z,8.56
2023-03-20T05:24:10.350Z,8.57
2023-03-20T05:26:48.722Z,8.55
2023-03-20T05:29:31.176Z,8.55
2023-03-20T05:32:14.983Z,8.56
2023-03-20T05:35:09.203Z,8.61
2023-03-20T05:37:47.249Z,8.64
2023-03-20T05:40:25.431Z,8.66
2023-03-20T05:43:11.996Z,8.69
2023-03-20T05:45:57.109Z,8.71
2023-03-20T05:48:42.510Z,8.74
2023-03-20T05:51:38.243Z,8.77
2023-03-20T05:54:15.525Z,8.78
2023-03-20T05:56:59.266Z,8.75
2023-03-20T05:59:48.565Z,8.73
2023-03-20T06:02:36.080Z,8.76
2023-03-20T06:05:11.922Z,8.68
2023-03-20T06:07:44.986Z,8.62
2023-03-20T06:10:14.684Z,8.73
2023-03-20T06:12:41.938Z,8.64
2023-03-20T06:15:09.099Z,8.60
2023-03-20T06:17:40.540Z,8.66
2023-03-20T06:20:08.403Z,8.68
2023-03-20T06:22:35.710Z,8.67
2023-03-20T06:25:02.603Z,8.68
2023-03-20T06:27:35.016Z,8.72
2023-03-20T06:30:01.806Z,8.90
2023-03-20T06:32:32.881Z,8.97
2023-03-20T06:35:01.897Z,8.95
2023-03-20T06:37:29.104Z,9.00
2023-03-20T06:40:04.599Z,9.15
2023-03-20T06:42:31.961Z,9.27
2023-03-20T06:44:59.505Z,9.23
2023-03-20T06:47:42.868Z,9.30
2023-03-20T06:50:10.476Z,9.31
2023-03-20T06:52:38.071Z,9.36
2023-03-20T06:55:19.910Z,9.35
2023-03-20T06:57:47.464Z,9.29
2023-03-20T07:00:16.688Z,9.24
2023-03-20T07:02:43.856Z,9.31
2023-03-20T07:05:14.108Z,9.39
2023-03-20T07:07:40.909Z,9.53
2023-03-20T07:10:08.053Z,9.66
2023-03-20T07:12:34.899Z,9.84
2023-03-20T07:15:01.946Z,10.04
2023-03-20T07:17:29.260Z,10.16
2023-03-20T07:19:56.857Z,10.23
2023-03-20T07:22:29.193Z,10.25
2023-03-20T07:25:11.726Z,10.13
2023-03-20T07:27:38.553Z,9.98
2023-03-20T07:30:06.686Z,10.02
2023-03-20T07:32:33.931Z,9.86
2023-03-20T07:35:01.728Z,9.77
2023-03-20T07:37:28.428Z,9.74
2023-03-20T07:39:59.825Z,9.85
2023-03-20T07:42:30.335Z,9.94
2023-03-20T07:44:59.107Z,10.11
2023-03-20T07:47:26.188Z,10.28
2023-03-20T07:49:52.872Z,10.44
2023-03-20T07:52:19.543Z,10.50
2023-03-20T07:54:46.169Z,10.58
2023-03-20T07:57:14.128Z,10.51
2023-03-20T07:59:40.845Z,10.41
2023-03-20T08:02:07.455Z,10.53
2023-03-20T08:04:34.084Z,10.75
2023-03-20T08:07:00.782Z,10.94
2023-03-20T08:09:27.639Z,11.18
2023-03-20T08:11:54.255Z,11.40
2023-03-20T08:14:20.934Z,11.68
2023-03-20T08:16:50.490Z,11.90
2023-03-20T08:19:22.222Z,11.97
2023-03-20T08:21:50.066Z,11.97
2023-03-20T08:24:16.681Z,11.65
2023-03-20T08:26:44.392Z,11.48
2023-03-20T08:29:11.585Z,11.15
2023-03-20T08:31:38.626Z,10.93
2023-03-20T08:34:05.212Z,10.89
2023-03-20T08:36:31.813Z,10.95
2023-03-20T08:38:58.432Z,10.96
2023-03-20T08:41:25.461Z,10.96
2023-03-20T08:43:52.351Z,10.96
2023-03-20T08:46:19.048Z,11.16
2023-03-20T08:48:45.874Z,11.18
2023-03-20T08:51:12.516Z,11.31
2023-03-20T08:53:39.136Z,11.39
2023-03-20T08:56:06.807Z,11.28
2023-03-20T08:58:33.503Z,11.48
2023-03-20T09:01:05.835Z,11.60
2023-03-20T09:03:32.526Z,11.45
2023-03-20T09:05:59.147Z,11.53
2023-03-20T09:08:25.807Z,11.38
2023-03-20T09:10:53.575Z,11.39
2023-03-20T09:13:27.100Z,11.33
2023-03-20T09:15:55.712Z,11.35
2023-03-20T09:18:23.366Z,11.89
2023-03-20T09:20:50.183Z,11.87
2023-03-20T09:23:17.378Z,12.18
2023-03-20T09:25:44.080Z,12.57
2023-03-20T09:28:10.717Z,12.48
2023-03-20T09:30:37.617Z,12.63
2023-03-20T09:33:04.551Z,12.42
2023-03-20T09:35:31.475Z,12.46
2023-03-20T09:37:58.140Z,12.51
2023-03-20T09:40:29.229Z,12.50
2023-03-20T09:43:01.779Z,12.58
2023-03-20T09:46:06.558Z,12.48
2023-03-20T09:48:54.272Z,12.28
2023-03-20T09:51:47.260Z,12.44
2023-03-20T09:54:26.128Z,12.31
2023-03-20T09:56:54.188Z,12.62
2023-03-20T09:59:21.428Z,12.69
2023-03-20T10:01:54.944Z,12.61
2023-03-20T10:04:24.364Z,12.67
2023-03-20T10:06:51.012Z,12.83
2023-03-20T10:09:17.604Z,13.04
2023-03-20T10:11:46.957Z,13.03
2023-03-20T10:14:27.425Z,12.69
2023-03-20T10:17:18.210Z,12.76
2023-03-20T10:19:51.840Z,12.90
2023-03-20T10:22:34.933Z,12.73
2023-03-20T10:25:15.846Z,12.61
2023-03-20T10:27:49.753Z,12.64
2023-03-20T10:30:44.304Z,12.29
2023-03-20T10:33:27.119Z,12.20
2023-03-20T10:36:15.718Z,12.23
2023-03-20T10:39:10.011Z,12.17
2023-03-20T10:41:38.896Z,12.11
2023-03-20T10:44:06.971Z,12.03
2023-03-20T10:46:37.143Z,11.91
2023-03-20T10:49:08.853Z,11.96
2023-03-20T10:51:59.650Z,12.00
2023-03-20T10:54:57.015Z,11.99
2023-03-20T10:57:26.260Z,11.89
2023-03-20T10:59:55.028Z,12.01
2023-03-20T11:02:23.395Z,12.06
2023-03-20T11:04:50.629Z,12.00
2023-03-20T11:07:34.348Z,11.89
2023-03-20T11:10:03.997Z,11.94
2023-03-20T11:12:35.690Z,11.96
2023-03-20T11:15:22.036Z,12.10
2023-03-20T11:17:58.844Z,12.19
2023-03-20T11:20:26.444Z,12.18
2023-03-20T11:22:59.388Z,12.23
2023-03-20T11:25:32.780Z,12.10
2023-03-20T11:28:30.705Z,11.93
2023-03-20T11:31:06.991Z,11.89
2023-03-20T11:33:41.087Z,11.85
2023-03-20T11:36:12.072Z,11.88
2023-03-20T11:38:46.057Z,12.21
2023-03-20T11:41:24.378Z,12.28
2023-03-20T11:43:51.025Z,12.52
2023-03-20T11:46:21.300Z,12.60
2023-03-20T11:48:48.036Z,12.86
2023-03-20T11:51:19.825Z,12.67
2023-03-20T11:53:49.548Z,12.45
2023-03-20T11:56:30.531Z,12.32
2023-03-20T11:59:03.530Z,12.46
2023-03-20T12:01:38.917Z,12.45
2023-03-20T12:04:11.342Z,12.91
2023-03-20T12:07:06.836Z,13.49
2023-03-20T12:09:43.645Z,13.50
2023-03-20T12:12:23.269Z,13.82
2023-03-20T12:14:49.847Z,13.70
2023-03-20T12:17:28.108Z,13.80
2023-03-20T12:19:58.201Z,13.62
2023-03-20T12:22:31.077Z,13.50
2023-03-20T12:25:23.552Z,13.33
2023-03-20T12:27:56.481Z,13.10
2023-03-20T12:30:31.697Z,13.13
2023-03-20T12:33:05.012Z,13.55
2023-03-20T12:35:34.470Z,14.04
2023-03-20T12:38:01.233Z,14.23
2023-03-20T12:40:43.719Z,14.52
2023-03-20T12:43:22.860Z,15.27
2023-03-20T12:46:22.700Z,15.63
2023-03-20T12:48:49.219Z,15.78
2023-03-20T12:51:39.953Z,15.76
2023-03-20T12:54:28.114Z,15.22
2023-03-20T12:57:03.241Z,14.40
2023-03-20T12:59:44.800Z,14.53
2023-03-20T13:02:16.767Z,14.64
2023-03-20T13:05:38.689Z,14.67
2023-03-20T13:08:23.584Z,14.49
2023-03-20T13:10:55.358Z,14.43
2023-03-20T13:13:33.965Z,14.37
2023-03-20T13:16:12.704Z,14.33
2023-03-20T13:18:53.876Z,14.15
2023-03-20T13:21:28.165Z,14.04
2023-03-20T13:24:14.785Z,13.74
2023-03-20T13:27:13.020Z,13.78
2023-03-20T13:29:46.041Z,14.04
2023-03-20T13:32:24.480Z,14.38
2023-03-20T13:35:15.744Z,14.92
2023-03-20T13:37:46.372Z,15.47
2023-03-20T13:40:22.752Z,15.43
2023-03-20T13:43:28.638Z,15.18
2023-03-20T13:46:04.890Z,15.14
2023-03-20T13:48:37.340Z,15.28
2023-03-20T13:51:07.282Z,15.20
2023-03-20T13:54:03.183Z,14.99
2023-03-20T13:56:42.879Z,14.58
2023-03-20T13:59:31.315Z,14.15
2023-03-20T14:02:17.991Z,14.33
2023-03-20T14:04:44.888Z,14.43
2023-03-20T14:07:33.925Z,14.37
2023-03-20T14:10:22.243Z,14.29
2023-03-20T14:13:20.554Z,14.30
2023-03-20T14:15:53.078Z,14.28
2023-03-20T14:18:22.151Z,13.80
2023-03-20T14:20:57.489Z,13.42
2023-03-20T14:23:32.320Z,13.57
2023-03-20T14:25:59.719Z,13.54
2023-03-20T14:28:30.053Z,13.63
2023-03-20T14:31:13.085Z,13.68
2023-03-20T14:33:44.429Z,13.60
2023-03-20T14:36:18.507Z,13.56
2023-03-20T14:38:54.680Z,13.49
2023-03-20T14:41:54.299Z,13.56
2023-03-20T14:44:59.493Z,13.66
2023-03-20T14:47:37.426Z,13.84
2023-03-20T14:50:26.262Z,13.97
2023-03-20T14:52:58.991Z,14.08
2023-03-20T14:55:27.837Z,13.89
2023-03-20T14:57:57.416Z,13.72
2023-03-20T15:00:30.300Z,13.69
2023-03-20T15:03:06.765Z,13.77
2023-03-20T15:05:34.500Z,13.78
2023-03-20T15:08:25.638Z,13.95
2023-03-20T15:10:55.891Z,13.99
2023-03-20T15:13:24.741Z,13.89
2023-03-20T15:16:07.044Z,13.76
2023-03-20T15:18:37.645Z,13.76
2023-03-20T15:21:04.618Z,13.63
2023-03-20T15:23:31.346Z,13.44
2023-03-20T15:26:00.501Z,13.33
2023-03-20T15:28:27.649Z,13.35
2023-03-20T15:30:57.993Z,13.31
2023-03-20T15:33:29.012Z,13.33
2023-03-20T15:35:56.317Z,13.37
2023-03-20T15:38:30.480Z,13.32
2023-03-20T15:40:57.896Z,13.31
2023-03-20T15:43:26.315Z,13.16
2023-03-20T15:46:14.156Z,13.21
2023-03-20T15:48:48.139Z,13.17
2023-03-20T15:51:14.860Z,13.23
2023-03-20T15:53:46.561Z,13.16
2023-03-20T15:56:18.769Z,13.11
2023-03-20T15:58:48.020Z,13.01
2023-03-20T16:01:20.235Z,13.04
2023-03-20T16:03:47.746Z,12.94
2023-03-20T16:06:18.711Z,13.01
2023-03-20T16:08:47.005Z,12.90
2023-03-20T16:11:16.780Z,12.98
2023-03-20T16:13:48.507Z,12.78
2023-03-20T16:16:22.101Z,12.73
2023-03-20T16:18:50.841Z,12.75
2023-03-20T16:21:28.697Z,12.70
2023-03-20T16:23:57.507Z,12.58
2023-03-20T16:26:25.820Z,12.54
2023-03-20T16:28:58.618Z,12.72
2023-03-20T16:31:36.363Z,12.78
2023-03-20T16:34:08.288Z,12.83
2023-03-20T16:36:37.554Z,12.84
2023-03-20T16:39:07.827Z,12.76
2023-03-20T16:41:36.864Z,12.55
2023-03-20T16:44:19.592Z,12.56
2023-03-20T16:47:01.837Z,12.55
2023-03-20T16:49:34.781Z,12.67
2023-03-20T16:52:05.297Z,12.36
2023-03-20T16:54:35.287Z,12.17
2023-03-20T16:57:06.098Z,12.03
2023-03-20T16:59:32.730Z,11.97
2023-03-20T17:02:00.336Z,12.00
2023-03-20T17:04:37.160Z,11.81
2023-03-20T17:07:18.540Z,11.76
2023-03-20T17:10:00.538Z,11.71
2023-03-20T17:12:31.387Z,11.56
2023-03-20T17:14:58.033Z,11.52
2023-03-20T17:17:26.065Z,11.50
2023-03-20T17:19:53.299Z,11.43
2023-03-20T17:22:25.351Z,11.38
2023-03-20T17:24:52.617Z,11.27
2023-03-20T17:27:20.282Z,11.33
2023-03-20T17:29:47.523Z,11.36
2023-03-20T17:32:16.875Z,10.93
2023-03-20T17:34:43.841Z,10.59
2023-03-20T17:37:16.675Z,10.13
2023-03-20T17:39:43.422Z,9.80
2023-03-20T17:42:18.564Z,9.83
2023-03-20T17:44:45.646Z,9.85
2023-03-20T17:47:16.449Z,9.82
2023-03-20T17:49:44.066Z,9.84
2023-03-20T17:52:19.069Z,9.89
2023-03-20T17:54:46.668Z,9.93
2023-03-20T17:57:21.267Z,9.94
2023-03-20T17:59:49.922Z,9.97
2023-03-20T18:02:18.382Z,10.02
2023-03-20T18:04:46.263Z,9.97
2023-03-20T18:07:13.780Z,9.95
2023-03-20T18:09:41.400Z,10.03
2023-03-20T18:12:15.753Z,10.07
2023-03-20T18:14:42.973Z,10.00
2023-03-20T18:17:12.342Z,9.99
2023-03-20T18:19:39.281Z,10.02
2023-03-20T18:22:06.965Z,10.04
2023-03-20T18:24:33.612Z,10.05
2023-03-20T18:27:00.610Z,10.07
2023-03-20T18:29:27.323Z,10.06
2023-03-20T18:31:54.004Z,10.08
2023-03-20T18:34:21.367Z,10.08
2023-03-20T18:36:48.059Z,10.10
2023-03-20T18:39:19.986Z,10.11
2023-03-20T18:41:46.614Z,10.14
2023-03-20T18:44:13.662Z,10.14
2023-03-20T18:46:40.821Z,10.13
2023-03-20T18:49:07.682Z,10.13
2023-03-20T18:51:34.362Z,10.16
2023-03-20T18:54:01.015Z,10.15
2023-03-20T18:56:28.491Z,10.10
2023-03-20T18:58:55.234Z,10.08
2023-03-20T19:01:22.296Z,10.15
2023-03-20T19:03:49.647Z,10.12
2023-03-20T19:06:21.207Z,10.09
2023-03-20T19:08:48.485Z,10.09
2023-03-20T19:11:17.821Z,10.08
2023-03-20T19:13:49.297Z,10.02
2023-03-20T19:16:32.303Z,9.99
2023-03-20T19:19:01.502Z,9.97
2023-03-20T19:21:29.521Z,9.89
2023-03-20T19:23:58.179Z,9.99
2023-03-20T19:26:26.051Z,10.03
2023-03-20T19:28:54.038Z,10.00
2023-03-20T19:31:22.151Z,10.01
2023-03-20T19:33:49.461Z,9.98
2023-03-20T19:36:19.179Z,9.93
2023-03-20T19:38:45.916Z,9.93
2023-03-20T19:41:14.756Z,9.99
2023-03-20T19:43:52.047Z,9.97
2023-03-20T19:46:38.102Z,9.97
2023-03-20T19:49:06.723Z,9.96
2023-03-20T19:51:33.577Z,9.97
2023-03-20T19:54:00.277Z,9.97
2023-03-20T19:56:27.165Z,9.89
2023-03-20T19:58:54.734Z,9.86
2023-03-20T20:01:25.813Z,9.89
2023-03-20T20:03:57.480Z,9.91
2023-03-20T20:06:30.935Z,9.94
2023-03-20T20:08:58.802Z,9.92
2023-03-20T20:11:25.461Z,9.95
2023-03-20T20:14:09.402Z,9.98
2023-03-20T20:16:39.706Z,10.05
2023-03-20T20:19:06.813Z,10.01
2023-03-20T20:24:20.436Z,10.07
2023-03-20T20:26:55.217Z,10.09
2023-03-20T20:29:26.887Z,10.03
2023-03-20T20:31:53.633Z,9.97
2023-03-20T20:39:54.440Z,9.79
2023-03-20T20:42:21.585Z,9.70
2023-03-20T20:44:48.487Z,9.67
2023-03-20T20:47:15.933Z,9.66
2023-03-20T20:49:42.721Z,9.61
2023-03-20T20:52:10.082Z,9.63
2023-03-20T20:54:36.782Z,9.63
2023-03-20T20:57:03.718Z,9.65
2023-03-20T20:59:30.382Z,9.65
2023-03-20T21:01:57.057Z,9.71
2023-03-20T21:04:23.989Z,9.68
2023-03-20T21:07:10.253Z,9.70
2023-03-20T21:09:37.500Z,9.72
2023-03-20T21:12:04.761Z,9.78
2023-03-20T21:14:31.742Z,9.87
2023-03-20T21:17:01.390Z,9.90
2023-03-20T21:19:35.672Z,9.87
2023-03-20T21:22:02.249Z,9.88
2023-03-20T21:24:32.741Z,10.35
2023-03-20T21:27:00.533Z,10.47
2023-03-20T21:29:27.239Z,10.63
2023-03-20T21:31:53.939Z,10.74
2023-03-20T21:34:20.874Z,10.83
2023-03-20T21:36:49.287Z,10.84
2023-03-20T21:39:16.541Z,10.80
2023-03-20T21:41:43.303Z,10.77
2023-03-20T21:44:16.670Z,10.77
2023-03-20T21:56:17.118Z,10.65
2023-03-20T21:58:33.157Z,10.64
2023-03-20T22:04:03.478Z,10.41
2023-03-20T22:07:13.088Z,10.19
2023-03-20T22:23:38.491Z,9.42
2023-03-20T22:26:38.076Z,9.43
2023-03-20T22:31:55.136Z,9.42
2023-03-20T22:40:22.895Z,9.43
2023-03-20T22:42:51.468Z,9.45
2023-03-20T22:45:12.879Z,9.44
2023-03-20T22:47:39.807Z,9.43
2023-03-20T22:50:07.113Z,9.43
2023-03-20T22:52:49.947Z,9.44
2023-03-20T22:55:17.418Z,9.45
2023-03-20T22:57:56.033Z,9.44
2023-03-20T23:00:31.079Z,9.44
2023-03-20T23:03:12.913Z,9.44
2023-03-20T23:05:42.887Z,9.48
2023-03-20T23:08:11.204Z,9.51
2023-03-20T23:10:42.758Z,9.49
2023-03-20T23:13:09.438Z,9.50
2023-03-20T23:15:36.153Z,9.52
2023-03-20T23:18:03.437Z,9.53
2023-03-20T23:20:30.101Z,9.54
2023-03-20T23:22:56.713Z,9.53
2023-03-20T23:25:36.386Z,9.53
2023-03-20T23:28:06.173Z,9.50
2023-03-20T23:30:41.967Z,9.49
2023-03-20T23:33:11.865Z,9.43
2023-03-20T23:35:38.487Z,9.39
2023-03-20T23:38:05.426Z,9.36
2023-03-20T23:40:32.315Z,9.34
2023-03-20T23:42:58.947Z,9.33
2023-03-20T23:45:25.564Z,9.32
2023-03-20T23:47:52.398Z,9.31
2023-03-20T23:50:30.121Z,9.28
2023-03-20T23:53:17.153Z,9.28
2023-03-20T23:55:47.084Z,9.28
2023-03-20T23:58:14.428Z,9.26
